Time;durP1;ratioP1;P1;durP2;ratioP2;P2;SDS_P1;SDS_P2;PMS_P1;PMS_P2;Temp;Humidity;BMP_temperature;BMP_pressure;BME280_temperature;BME280_humidity;BME280_pressure;Samples;Min_cycle;Max_cycle;Signal;HPM_P1;HPM_P2
2022/06/12 00:02:24;;;;;;;19.33;9.55;;;14.70;99.90;;;;;;4983480;28;20103;-58
2022/06/12 00:04:50;;;;;;;23.15;9.27;;;14.70;99.90;;;;;;4981403;28;20781;-57
2022/06/12 00:07:16;;;;;;;26.98;11.02;;;14.70;99.90;;;;;;4985758;28;20047;-57
2022/06/12 00:09:42;;;;;;;24.85;10.70;;;14.70;99.90;;;;;;4984070;28;20050;-53
2022/06/12 00:12:08;;;;;;;20.70;9.63;;;14.70;99.90;;;;;;4964902;28;20087;-56
2022/06/12 00:14:34;;;;;;;33.90;20.92;;;14.70;99.90;;;;;;4963984;28;20049;-56
2022/06/12 00:17:00;;;;;;;31.75;20.42;;;14.60;99.90;;;;;;4984802;28;20084;-57
2022/06/12 00:19:26;;;;;;;23.10;13.63;;;14.60;99.90;;;;;;4992504;28;20095;-57
2022/06/12 00:21:52;;;;;;;23.95;7.78;;;14.60;99.90;;;;;;4987460;28;20322;-55
2022/06/12 00:24:20;;;;;;;19.90;6.72;;;14.60;99.90;;;;;;4965843;28;20053;-55
2022/06/12 00:26:49;;;;;;;13.23;5.07;;;14.50;99.90;;;;;;4966928;28;23305;-56
2022/06/12 00:29:25;;;;;;;14.15;4.65;;;14.50;99.90;;;;;;4984735;28;20053;-55
2022/06/12 00:32:08;;;;;;;10.77;3.83;;;14.50;99.90;;;;;;4979321;28;20056;-53
2022/06/12 00:34:42;;;;;;;12.93;3.78;;;14.40;99.90;;;;;;4978393;28;20130;-57
2022/06/12 00:37:10;;;;;;;10.88;4.30;;;14.40;99.90;;;;;;4984210;28;20451;-55
2022/06/12 00:39:36;;;;;;;16.05;4.57;;;14.40;99.90;;;;;;4998833;28;20045;-57
2022/06/12 00:42:04;;;;;;;15.38;4.70;;;14.40;99.90;;;;;;4988778;28;20049;-56
2022/06/12 00:44:34;;;;;;;13.30;4.53;;;14.30;99.90;;;;;;4981201;28;20224;-58
2022/06/12 00:47:18;;;;;;;13.10;4.00;;;14.30;99.90;;;;;;4985959;28;20045;-58
2022/06/12 00:49:54;;;;;;;;;;;14.30;99.90;;;;;;4986792;28;20064;-56
2022/06/12 00:52:22;;;;;;;17.25;5.22;;;14.30;99.90;;;;;;4983188;28;20755;-58
2022/06/12 00:54:53;;;;;;;12.82;4.93;;;14.20;99.90;;;;;;5003988;28;20173;-58
2022/06/12 00:57:20;;;;;;;13.85;4.10;;;14.20;99.90;;;;;;4984928;28;20042;-57
2022/06/12 00:59:50;;;;;;;19.38;5.07;;;14.20;99.90;;;;;;4982904;28;20677;-58
2022/06/12 01:02:22;;;;;;;13.30;4.32;;;14.20;99.90;;;;;;4985951;28;20555;-55
2022/06/12 01:07:36;;;;;;;15.05;4.80;;;14.20;99.90;;;;;;4986878;28;20450;-58
2022/06/12 01:10:07;;;;;;;14.25;4.45;;;14.20;99.90;;;;;;4984437;28;20053;-57
2022/06/12 01:12:43;;;;;;;15.82;4.32;;;14.10;99.90;;;;;;5003026;28;20128;-56
2022/06/12 01:15:16;;;;;;;15.05;4.07;;;14.20;99.90;;;;;;4988250;28;20074;-55
2022/06/12 01:17:43;;;;;;;12.07;3.90;;;14.20;99.90;;;;;;4985558;28;20050;-55
2022/06/12 01:20:14;;;;;;;15.57;4.47;;;14.20;99.90;;;;;;4990982;28;20706;-56
2022/06/12 01:23:01;;;;;;;17.77;5.88;;;14.10;99.90;;;;;;4988441;28;20141;-55
2022/06/12 01:25:55;;;;;;;11.77;3.38;;;14.20;99.90;;;;;;4988556;28;21253;-55
2022/06/12 01:28:33;;;;;;;11.82;4.00;;;14.20;99.90;;;;;;4987914;28;20091;-57
2022/06/12 01:31:23;;;;;;;17.45;4.82;;;14.10;99.90;;;;;;4998649;28;20049;-56
2022/06/12 01:34:25;;;;;;;14.50;3.78;;;14.10;99.90;;;;;;4987430;28;20083;-55
2022/06/12 01:36:51;;;;;;;13.82;3.92;;;14.10;99.90;;;;;;4980583;28;20041;-56
2022/06/12 01:39:55;;;;;;;12.52;4.13;;;14.10;99.90;;;;;;4986858;28;20119;-56
2022/06/12 01:42:47;;;;;;;15.63;4.13;;;14.10;99.90;;;;;;4938757;28;20092;-56
2022/06/12 01:45:55;;;;;;;12.85;4.22;;;14.10;99.90;;;;;;5008818;28;20502;-57
2022/06/12 01:48:37;;;;;;;12.32;4.15;;;14.10;99.90;;;;;;4983174;28;20088;-56
2022/06/12 01:51:45;;;;;;;13.48;4.07;;;14.00;99.90;;;;;;4970384;28;20056;-56
2022/06/12 01:54:17;;;;;;;14.43;3.92;;;14.00;99.90;;;;;;4930942;28;20043;-56
2022/06/12 01:56:51;;;;;;;14.15;3.95;;;14.00;99.90;;;;;;4980345;28;20049;-56
2022/06/12 01:59:23;;;;;;;;;;;14.00;99.90;;;;;;4993172;28;20139;-54
2022/06/12 02:01:57;;;;;;;11.50;3.92;;;14.00;99.90;;;;;;4992480;28;19921;-56
2022/06/12 02:04:36;;;;;;;14.70;4.05;;;14.00;99.90;;;;;;4996980;28;20408;-56
2022/06/12 02:07:08;;;;;;;14.20;3.75;;;14.00;99.90;;;;;;4986940;28;20488;-56
2022/06/12 02:09:59;;;;;;;21.20;5.00;;;13.90;99.90;;;;;;4985566;28;20243;-55
2022/06/12 02:15:56;;;;;;;14.75;4.30;;;13.90;99.90;;;;;;4973073;28;20578;-53
2022/06/12 02:18:28;;;;;;;13.63;4.68;;;13.90;99.90;;;;;;4995253;28;20214;-56
2022/06/12 02:21:24;;;;;;;19.58;4.72;;;13.90;99.90;;;;;;5012196;28;20129;-55
2022/06/12 02:24:02;;;;;;;13.15;3.53;;;14.00;99.90;;;;;;4997669;28;20045;-56
2022/06/12 02:27:12;;;;;;;12.07;3.50;;;13.90;99.90;;;;;;5008013;28;20041;-55
2022/06/12 02:29:56;;;;;;;19.52;4.35;;;14.00;99.90;;;;;;4991130;28;20123;-56
2022/06/12 02:32:30;;;;;;;13.70;4.68;;;13.90;99.90;;;;;;4985011;28;20054;-58
2022/06/12 02:35:13;;;;;;;20.83;5.82;;;13.90;99.90;;;;;;4986357;28;20068;-56
2022/06/12 02:37:45;;;;;;;16.48;4.05;;;13.90;99.90;;;;;;4985694;28;20099;-56
2022/06/12 02:40:20;;;;;;;14.55;3.90;;;13.90;99.90;;;;;;4989499;28;20182;-54
2022/06/12 02:42:48;;;;;;;15.85;4.60;;;13.90;99.90;;;;;;5005548;28;20151;-55
2022/06/12 02:45:25;;;;;;;12.93;3.63;;;13.90;99.90;;;;;;4991468;28;20045;-56
2022/06/12 02:47:52;;;;;;;18.90;4.63;;;13.90;99.90;;;;;;4987883;28;20041;-56
2022/06/12 02:50:22;;;;;;;12.43;4.60;;;13.90;99.90;;;;;;4972804;28;20038;-57
2022/06/12 02:52:53;;;;;;;17.77;4.32;;;13.90;99.90;;;;;;4968998;28;20049;-56
2022/06/12 02:55:25;;;;;;;15.73;4.95;;;13.90;99.90;;;;;;4985836;28;20053;-57
2022/06/12 02:58:13;;;;;;;22.00;4.88;;;13.90;99.90;;;;;;5015360;28;20110;-57
2022/06/12 03:01:04;;;;;;;15.00;4.15;;;13.80;99.90;;;;;;4983475;28;20057;-58
2022/06/12 03:03:48;;;;;;;18.00;4.60;;;13.80;99.90;;;;;;5003196;28;22477;-55
2022/06/12 03:06:14;;;;;;;21.25;5.30;;;13.80;99.90;;;;;;4998839;28;20038;-57
2022/06/12 03:08:44;;;;;;;22.52;5.07;;;13.80;99.90;;;;;;5000460;28;20113;-57
2022/06/12 03:11:26;;;;;;;15.38;4.55;;;13.80;99.90;;;;;;4988843;28;20127;-56
2022/06/12 03:13:54;;;;;;;19.88;5.13;;;13.80;99.90;;;;;;5005049;28;20050;-56
2022/06/12 03:16:27;;;;;;;16.95;4.22;;;13.80;99.90;;;;;;4995463;28;20041;-56
2022/06/12 03:19:13;;;;;;;16.98;4.72;;;13.80;99.90;;;;;;4995527;28;20128;-54
2022/06/12 03:21:52;;;;;;;13.98;4.18;;;13.80;99.90;;;;;;4990849;28;20049;-55
2022/06/12 03:24:49;;;;;;;17.63;4.97;;;13.70;99.90;;;;;;4990334;28;20137;-57
2022/06/12 03:27:23;;;;;;;11.15;3.63;;;13.70;99.90;;;;;;4994253;28;20106;-55
2022/06/12 03:30:21;;;;;;;14.00;4.13;;;13.70;99.90;;;;;;5004161;28;20041;-54
2022/06/12 03:33:12;;;;;;;15.57;5.18;;;13.70;99.90;;;;;;5004134;28;20642;-57
2022/06/12 03:36:00;;;;;;;16.00;4.30;;;13.80;99.90;;;;;;5002180;28;20044;-56
2022/06/12 03:38:44;;;;;;;13.80;4.03;;;13.80;99.90;;;;;;4996806;28;20500;-57
2022/06/12 03:41:27;;;;;;;15.73;4.07;;;13.80;99.90;;;;;;4994751;28;20127;-54
2022/06/12 03:44:12;;;;;;;17.42;4.88;;;13.80;99.90;;;;;;5015762;28;20042;-55
2022/06/12 03:47:02;;;;;;;20.00;5.25;;;13.80;99.90;;;;;;4998422;28;20043;-55
2022/06/12 03:49:39;;;;;;;15.20;4.55;;;13.80;99.90;;;;;;5000072;28;20049;-57
2022/06/12 03:52:15;;;;;;;19.27;4.53;;;13.90;99.90;;;;;;4995432;28;20041;-57
2022/06/12 03:54:54;;;;;;;17.20;4.75;;;13.80;99.90;;;;;;5002493;28;20615;-56
2022/06/12 03:57:51;;;;;;;14.98;4.45;;;13.80;99.90;;;;;;5000937;28;20489;-57
2022/06/12 04:00:23;;;;;;;15.90;5.00;;;13.80;99.90;;;;;;4991895;28;20052;-57
2022/06/12 04:02:59;;;;;;;20.58;5.95;;;13.80;99.90;;;;;;5000749;28;20046;-55
2022/06/12 04:05:30;;;;;;;15.40;4.82;;;13.70;99.90;;;;;;5003240;28;20038;-55
2022/06/12 04:07:58;;;;;;;21.08;4.72;;;13.70;99.90;;;;;;5005708;28;20069;-56
2022/06/12 04:10:28;;;;;;;13.15;4.22;;;13.70;99.90;;;;;;4989818;28;22030;-56
2022/06/12 04:12:55;;;;;;;14.05;4.35;;;13.70;99.90;;;;;;4981265;28;20252;-56
2022/06/12 04:15:41;;;;;;;17.25;5.07;;;13.80;99.90;;;;;;4981610;28;20082;-56
2022/06/12 04:18:07;;;;;;;20.10;5.57;;;13.80;99.90;;;;;;4998660;28;20068;-53
2022/06/12 04:20:54;;;;;;;20.15;5.28;;;13.80;99.90;;;;;;4988441;28;20667;-57
2022/06/12 04:23:28;;;;;;;16.42;4.88;;;13.80;99.90;;;;;;5000181;28;20095;-55
2022/06/12 04:25:59;;;;;;;19.75;5.47;;;13.80;99.90;;;;;;4992786;28;20045;-57
2022/06/12 04:28:33;;;;;;;20.08;4.30;;;13.90;99.90;;;;;;4994356;28;20142;-55
2022/06/12 04:31:03;;;;;;;12.80;4.32;;;13.90;99.90;;;;;;4993879;28;20049;-57
2022/06/12 04:33:40;;;;;;;12.50;4.78;;;13.90;99.90;;;;;;4994629;28;20419;-58
2022/06/12 04:36:08;;;;;;;16.02;4.65;;;14.00;99.90;;;;;;4997842;28;20042;-56
2022/06/12 04:38:36;;;;;;;19.88;5.78;;;14.00;99.90;;;;;;4998495;28;20041;-56
2022/06/12 04:41:02;;;;;;;21.08;4.45;;;14.10;99.90;;;;;;5001113;28;20088;-57
2022/06/12 04:43:28;;;;;;;17.77;5.20;;;14.20;99.90;;;;;;4988645;28;22151;-57
2022/06/12 04:45:54;;;;;;;19.30;4.15;;;14.30;99.90;;;;;;5003660;28;20075;-58
2022/06/12 04:48:31;;;;;;;18.27;5.30;;;14.30;99.90;;;;;;5007636;28;20073;-58
2022/06/12 04:50:57;;;;;;;17.88;4.50;;;14.40;99.90;;;;;;5004317;28;20581;-57
2022/06/12 04:53:22;;;;;;;16.83;4.50;;;14.40;99.90;;;;;;4978763;28;20259;-57
2022/06/12 04:55:48;;;;;;;16.90;4.88;;;14.50;99.90;;;;;;5000549;28;20053;-57
2022/06/12 04:58:14;;;;;;;18.45;4.90;;;14.60;99.90;;;;;;5008673;28;20499;-57
2022/06/12 05:00:39;;;;;;;16.23;4.72;;;14.70;99.90;;;;;;5017666;28;20030;-59
2022/06/12 05:03:05;;;;;;;21.38;5.05;;;14.80;99.90;;;;;;5015179;28;20061;-58
2022/06/12 05:05:31;;;;;;;21.77;4.82;;;14.90;99.90;;;;;;4991484;28;20052;-58
2022/06/12 05:07:57;;;;;;;23.33;5.97;;;14.90;99.90;;;;;;4995679;28;20045;-58
2022/06/12 05:10:23;;;;;;;20.77;5.88;;;14.90;99.90;;;;;;4995282;28;20095;-58
2022/06/12 05:12:49;;;;;;;27.00;5.30;;;14.90;99.90;;;;;;4988025;23;20081;-55
2022/06/12 05:15:15;;;;;;;21.08;6.03;;;15.00;99.90;;;;;;4966880;28;20121;-58
2022/06/12 05:17:44;;;;;;;27.25;7.15;;;15.00;99.90;;;;;;4960837;28;20109;-56
2022/06/12 05:20:28;;;;;;;25.27;5.95;;;15.10;99.90;;;;;;4966931;28;20105;-64
2022/06/12 05:22:54;;;;;;;27.98;8.07;;;15.10;99.90;;;;;;4949670;28;20137;-57
2022/06/12 05:25:20;;;;;;;20.58;6.93;;;15.20;99.90;;;;;;4956018;28;20440;-56
2022/06/12 05:27:47;;;;;;;25.98;6.15;;;15.20;99.90;;;;;;4944487;28;20053;-56
2022/06/12 05:30:16;;;;;;;23.77;5.95;;;15.30;99.90;;;;;;4968677;28;20038;-56
2022/06/12 05:32:47;;;;;;;23.77;5.95;;;15.40;99.90;;;;;;4945504;28;20046;-58
2022/06/12 05:35:14;;;;;;;28.27;6.38;;;15.40;99.90;;;;;;4971401;28;20046;-57
2022/06/12 05:37:39;;;;;;;30.45;8.07;;;15.50;99.90;;;;;;4973158;28;20046;-57
2022/06/12 05:40:10;;;;;;;27.25;6.75;;;15.60;99.90;;;;;;4963795;28;20575;-58
2022/06/12 05:42:39;;;;;;;28.02;7.30;;;15.80;99.90;;;;;;4949225;28;20034;-56
2022/06/12 05:45:12;;;;;;;27.20;6.78;;;15.90;99.90;;;;;;4950837;28;20514;-63
2022/06/12 05:47:52;;;;;;;23.58;8.13;;;15.90;99.90;;;;;;4966864;28;20408;-54
2022/06/12 05:50:20;;;;;;;20.42;5.72;;;16.00;99.90;;;;;;4972342;28;20038;-57
2022/06/12 05:52:47;;;;;;;28.08;7.30;;;16.10;99.90;;;;;;4945103;28;20165;-59
2022/06/12 05:55:14;;;;;;;26.52;7.13;;;16.20;99.90;;;;;;4965869;28;20034;-63
2022/06/12 05:57:40;;;;;;;30.45;7.10;;;16.30;99.90;;;;;;4962183;28;20230;-56
2022/06/12 06:00:11;;;;;;;33.28;8.70;;;16.40;99.90;;;;;;4961280;28;20061;-57
2022/06/12 06:02:38;;;;;;;32.50;7.57;;;16.50;99.90;;;;;;4959785;28;20086;-58
2022/06/12 06:05:06;;;;;;;24.45;8.65;;;16.60;99.90;;;;;;4955989;28;20560;-55
2022/06/12 06:07:33;;;;;;;26.25;7.03;;;16.60;99.90;;;;;;4961816;28;20180;-64
2022/06/12 06:09:59;;;;;;;28.48;7.95;;;16.70;99.90;;;;;;4960260;28;20047;-59
2022/06/12 06:12:25;;;;;;;32.55;8.70;;;16.80;99.90;;;;;;4961682;28;20038;-59
2022/06/12 06:14:51;;;;;;;24.73;7.10;;;16.90;99.90;;;;;;4949490;28;20241;-60
2022/06/12 06:17:17;;;;;;;29.80;6.90;;;17.00;99.90;;;;;;4965658;28;20047;-59
2022/06/12 06:19:42;;;;;;;28.35;7.57;;;17.10;99.90;;;;;;4955002;28;20425;-57
2022/06/12 06:22:08;;;;;;;24.60;5.47;;;17.10;99.90;;;;;;4958941;28;20062;-63
2022/06/12 06:24:34;;;;;;;25.70;6.80;;;17.20;99.90;;;;;;4959114;28;20074;-61
2022/06/12 06:27:00;;;;;;;27.38;5.57;;;17.30;99.90;;;;;;4957269;28;20093;-57
2022/06/12 06:29:26;;;;;;;24.88;6.30;;;17.40;99.90;;;;;;4962723;28;20054;-57
2022/06/12 06:31:52;;;;;;;26.70;6.90;;;17.50;99.90;;;;;;4959046;28;20089;-59
2022/06/12 06:34:17;;;;;;;26.15;6.38;;;17.50;99.90;;;;;;4933438;28;20153;-55
2022/06/12 06:36:43;;;;;;;28.17;7.13;;;17.50;99.90;;;;;;4955376;28;20148;-63
2022/06/12 06:39:09;;;;;;;26.50;7.55;;;17.60;99.90;;;;;;4957987;28;20046;-64
2022/06/12 06:41:34;;;;;;;23.73;6.50;;;17.60;99.90;;;;;;4953150;28;20098;-59
2022/06/12 06:46:45;;;;;;;19.60;6.13;;;17.80;99.90;;;;;;4964610;28;20035;-59
2022/06/12 06:49:10;;;;;;;22.45;6.35;;;17.90;99.90;;;;;;4964986;28;20109;-64
2022/06/12 06:51:36;;;;;;;19.05;5.60;;;18.00;99.90;;;;;;4958322;28;20054;-61
2022/06/12 06:54:04;;;;;;;27.10;6.10;;;18.00;99.90;;;;;;4970712;28;20117;-56
2022/06/12 06:56:30;;;;;;;25.25;6.47;;;18.10;99.90;;;;;;4944733;28;20042;-58
2022/06/12 06:58:56;;;;;;;20.92;4.90;;;18.20;99.90;;;;;;4963372;28;20130;-60
2022/06/12 07:01:22;;;;;;;19.10;4.47;;;18.20;99.90;;;;;;4942320;28;20070;-59
2022/06/12 07:03:48;;;;;;;19.40;5.25;;;18.30;99.90;;;;;;4969771;28;20093;-63
2022/06/12 07:06:15;;;;;;;21.63;5.22;;;18.30;99.90;;;;;;4968512;28;20046;-61
2022/06/12 07:08:43;;;;;;;26.17;6.20;;;18.40;99.90;;;;;;4954345;28;20420;-59
2022/06/12 07:11:08;;;;;;;13.38;3.65;;;18.50;99.90;;;;;;4961790;28;20180;-60
2022/06/12 07:13:34;;;;;;;19.88;4.18;;;18.60;99.90;;;;;;4952620;28;21188;-59
2022/06/12 07:16:04;;;;;;;13.10;4.20;;;18.70;99.90;;;;;;4968588;28;21632;-59
2022/06/12 07:18:30;;;;;;;19.30;5.55;;;18.90;99.90;;;;;;4952622;28;20050;-64
2022/06/12 07:20:59;;;;;;;17.58;5.13;;;19.00;99.90;;;;;;4961460;28;20089;-58
2022/06/12 07:23:25;;;;;;;15.88;4.35;;;19.10;99.90;;;;;;4965546;28;20054;-56
2022/06/12 07:25:55;;;;;;;17.13;4.30;;;19.10;99.90;;;;;;4963358;28;20038;-57
2022/06/12 07:28:22;;;;;;;23.67;5.00;;;18.90;99.90;;;;;;4969910;28;20070;-58
2022/06/12 07:30:50;;;;;;;16.42;4.07;;;18.90;99.90;;;;;;4966090;28;20133;-62
2022/06/12 07:33:16;;;;;;;13.05;4.18;;;19.00;99.90;;;;;;4968178;28;20051;-61
2022/06/12 07:35:43;;;;;;;14.82;3.55;;;19.00;99.90;;;;;;4958845;28;20066;-61
2022/06/12 07:38:11;;;;;;;14.02;4.07;;;19.10;99.90;;;;;;4955415;28;20571;-59
2022/06/12 07:40:42;;;;;;;14.63;3.65;;;19.10;99.90;;;;;;4969190;28;20042;-59
2022/06/12 07:43:08;;;;;;;14.18;3.78;;;19.10;99.90;;;;;;4966755;28;20042;-58
2022/06/12 07:45:36;;;;;;;12.90;3.60;;;19.10;99.90;;;;;;4951695;28;20549;-60
2022/06/12 07:48:02;;;;;;;14.32;3.83;;;19.10;99.90;;;;;;4967037;28;20136;-59
2022/06/12 07:50:28;;;;;;;17.55;4.53;;;19.20;99.90;;;;;;4966652;28;20077;-59
2022/06/12 07:52:55;;;;;;;13.52;4.40;;;19.40;99.90;;;;;;4956536;28;20054;-56
2022/06/12 07:55:20;;;;;;;12.23;3.47;;;19.40;99.90;;;;;;4963515;28;20069;-61
2022/06/12 07:57:48;;;;;;;15.10;4.00;;;19.40;99.90;;;;;;4948180;28;20486;-58
2022/06/12 08:00:15;;;;;;;13.32;4.05;;;19.40;99.90;;;;;;4956724;28;20101;-60
2022/06/12 08:02:43;;;;;;;13.38;2.88;;;19.40;99.90;;;;;;4971031;28;20053;-59
2022/06/12 08:05:09;;;;;;;9.95;3.00;;;19.40;99.90;;;;;;4965770;28;20050;-57
2022/06/12 08:07:35;;;;;;;16.02;3.30;;;19.30;99.90;;;;;;4972071;28;20114;-57
2022/06/12 08:10:03;;;;;;;11.43;2.97;;;19.40;99.90;;;;;;4940340;28;20133;-59
2022/06/12 08:12:33;;;;;;;12.75;3.05;;;19.40;99.90;;;;;;4954998;28;20125;-61
2022/06/12 08:14:59;;;;;;;7.82;3.17;;;19.60;99.90;;;;;;4961721;28;20054;-56
2022/06/12 08:17:25;;;;;;;10.25;3.85;;;19.70;99.90;;;;;;4949760;28;20052;-62
2022/06/12 08:22:36;;;;;;;14.10;3.75;;;20.00;99.90;;;;;;4951547;28;20042;-62
2022/06/12 08:25:02;;;;;;;9.52;2.78;;;19.80;99.90;;;;;;4960646;28;20050;-62
2022/06/12 08:27:28;;;;;;;15.35;3.30;;;19.90;99.90;;;;;;4967506;28;20049;-60
2022/06/12 08:29:53;;;;;;;9.32;3.13;;;20.00;99.90;;;;;;4977899;28;20034;-60
2022/06/12 08:32:21;;;;;;;11.10;3.63;;;19.80;99.90;;;;;;4955241;28;20494;-57
2022/06/12 08:35:00;;;;;;;8.13;2.83;;;19.90;99.90;;;;;;4959626;28;20120;-58
2022/06/12 08:37:32;;;;;;;9.65;2.88;;;19.70;99.90;;;;;;4971232;28;20048;-62
2022/06/12 08:39:59;;;;;;;10.65;3.15;;;19.80;99.90;;;;;;4969118;28;20050;-55
2022/06/12 08:42:53;;;;;;;9.43;3.15;;;20.00;99.90;;;;;;4972543;28;20487;-60
2022/06/12 08:45:21;;;;;;;;;;;20.30;99.90;;;;;;4969255;28;20046;-60
2022/06/12 08:47:50;;;;;;;6.10;2.30;;;20.30;99.70;;;;;;4982079;28;20016;-59
2022/06/12 08:50:18;;;;;;;7.68;2.95;;;20.00;99.90;;;;;;4970960;28;20062;-60
2022/06/12 08:52:55;;;;;;;7.07;2.50;;;20.10;99.90;;;;;;4978112;28;20050;-59
2022/06/12 08:55:25;;;;;;;8.98;2.33;;;20.50;99.90;;;;;;4955562;28;20196;-62
2022/06/12 08:58:06;;;;;;;8.93;3.08;;;20.40;99.00;;;;;;4979763;28;20487;-57
2022/06/12 09:00:35;;;;;;;7.97;2.60;;;20.50;98.70;;;;;;4972821;28;20039;-60
2022/06/12 09:03:03;;;;;;;8.63;2.80;;;20.60;98.70;;;;;;4971707;28;20097;-58
2022/06/12 09:05:44;;;;;;;9.32;2.95;;;20.50;98.40;;;;;;4954140;28;20053;-63
2022/06/12 09:08:22;;;;;;;10.13;2.35;;;20.50;98.40;;;;;;4974059;28;20046;-61
2022/06/12 09:11:07;;;;;;;7.35;2.55;;;20.60;98.40;;;;;;4966595;28;20054;-59
2022/06/12 09:13:59;;;;;;;8.63;2.63;;;20.60;97.30;;;;;;4971789;28;20482;-59
2022/06/12 09:16:30;;;;;;;7.70;2.78;;;20.80;97.50;;;;;;4950653;28;20453;-59
2022/06/12 09:19:21;;;;;;;6.90;2.40;;;20.80;96.90;;;;;;4974829;28;20228;-64
2022/06/12 09:22:02;;;;;;;8.02;2.38;;;20.70;97.30;;;;;;4969000;28;20050;-59
2022/06/12 09:24:52;;;;;;;8.82;2.60;;;20.70;97.20;;;;;;4959015;28;20109;-57
2022/06/12 09:27:34;;;;;;;5.97;2.30;;;20.90;97.10;;;;;;4980136;28;20042;-58
2022/06/12 09:30:09;;;;;;;7.65;1.92;;;21.00;97.90;;;;;;4980613;28;20512;-59
2022/06/12 09:32:56;;;;;;;6.50;2.42;;;20.80;96.40;;;;;;4971736;28;20050;-61
2022/06/12 09:35:56;;;;;;;8.45;2.80;;;20.60;97.00;;;;;;4963407;28;20065;-58
2022/06/12 09:38:37;;;;;;;8.25;2.33;;;20.50;97.30;;;;;;4958790;28;20055;-56
2022/06/12 09:41:18;;;;;;;7.60;2.40;;;20.60;96.10;;;;;;4979337;28;20119;-56
2022/06/12 09:43:53;;;;;;;7.68;2.92;;;20.40;95.60;;;;;;4974470;28;20228;-63
2022/06/12 09:46:22;;;;;;;7.93;2.72;;;20.60;96.70;;;;;;4972242;28;20136;-61
2022/06/12 09:48:56;;;;;;;8.35;2.42;;;20.60;96.40;;;;;;4956632;28;20038;-58
2022/06/12 09:51:31;;;;;;;6.55;2.67;;;20.90;96.40;;;;;;4960234;28;20053;-57
2022/06/12 09:54:20;;;;;;;10.57;3.17;;;20.50;96.00;;;;;;4963170;28;20042;-64
2022/06/12 09:57:01;;;;;;;11.02;3.05;;;20.60;96.40;;;;;;4977018;28;20053;-60
2022/06/12 09:59:44;;;;;;;8.15;3.25;;;20.60;95.80;;;;;;4982776;28;20081;-62
2022/06/12 10:02:22;;;;;;;9.27;2.53;;;20.60;97.40;;;;;;4979138;28;20074;-59
2022/06/12 10:04:58;;;;;;;7.25;2.72;;;20.80;96.10;;;;;;4947442;28;20046;-57
2022/06/12 10:07:30;;;;;;;12.70;2.85;;;20.60;96.30;;;;;;4975145;28;20116;-65
2022/06/12 10:10:06;;;;;;;10.57;3.10;;;20.50;96.60;;;;;;4980056;28;20074;-58
2022/06/12 10:12:38;;;;;;;9.80;2.83;;;20.70;97.20;;;;;;4958394;28;20050;-61
2022/06/12 10:15:18;;;;;;;7.38;2.30;;;21.10;97.10;;;;;;4980878;28;20532;-58
2022/06/12 10:17:51;;;;;;;8.25;2.92;;;21.10;95.40;;;;;;4981518;28;20532;-61
2022/06/12 10:20:29;;;;;;;8.57;3.45;;;21.10;95.90;;;;;;4977203;28;20125;-59
2022/06/12 10:22:56;;;;;;;9.57;2.72;;;21.10;96.80;;;;;;4971665;28;20045;-60
2022/06/12 10:25:33;;;;;;;7.70;3.15;;;21.30;96.70;;;;;;4979558;28;20038;-62
2022/06/12 10:28:03;;;;;;;11.65;3.45;;;21.30;96.80;;;;;;4977340;28;20062;-59
2022/06/12 10:30:38;;;;;;;9.25;3.50;;;21.40;96.70;;;;;;4968004;28;20154;-57
2022/06/12 10:33:18;;;;;;;12.05;2.97;;;21.20;95.60;;;;;;4970283;28;20053;-57
2022/06/12 10:36:07;;;;;;;11.07;3.08;;;20.90;96.50;;;;;;4971371;28;20452;-61
2022/06/12 10:38:36;;;;;;;8.20;2.65;;;20.80;96.60;;;;;;4976172;28;20050;-59
2022/06/12 10:41:07;;;;;;;12.30;4.35;;;21.20;96.60;;;;;;4973200;28;20506;-62
2022/06/12 10:43:42;;;;;;;9.63;3.35;;;21.00;96.70;;;;;;4961391;28;20053;-64
2022/06/12 10:46:14;;;;;;;11.15;3.85;;;21.00;96.20;;;;;;4974083;28;20045;-60
2022/06/12 10:48:41;;;;;;;9.27;2.92;;;21.00;95.80;;;;;;4974989;28;20046;-61
2022/06/12 10:51:21;;;;;;;8.75;2.50;;;21.20;97.00;;;;;;4972169;28;20046;-62
2022/06/12 10:53:55;;;;;;;9.95;3.20;;;21.50;95.70;;;;;;4976939;28;20038;-62
2022/06/12 10:56:34;;;;;;;11.82;3.38;;;21.30;96.10;;;;;;4967795;28;20039;-62
2022/06/12 10:59:09;;;;;;;8.45;2.65;;;21.00;96.60;;;;;;4977417;28;20042;-56
2022/06/12 11:01:48;;;;;;;9.32;3.30;;;21.20;96.80;;;;;;4962780;28;20503;-65
2022/06/12 11:04:36;;;;;;;8.27;2.95;;;21.40;96.40;;;;;;4971064;28;20564;-60
2022/06/12 11:07:21;;;;;;;13.18;3.35;;;21.40;96.20;;;;;;4970686;28;20312;-61
2022/06/12 11:10:10;;;;;;;11.27;3.72;;;21.40;96.30;;;;;;4957562;28;20508;-60
2022/06/12 11:13:05;;;;;;;10.10;3.80;;;21.20;95.80;;;;;;4964519;23;20279;-59
2022/06/12 11:15:34;;;;;;;;;;;21.50;97.40;;;;;;4931642;28;20047;-58
2022/06/12 11:18:22;;;;;;;13.18;3.25;;;21.80;96.40;;;;;;4917378;28;21357;-57
2022/06/12 11:21:12;;;;;;;9.27;2.70;;;21.90;95.40;;;;;;4931994;28;20105;-58
2022/06/12 11:23:53;;;;;;;9.73;3.03;;;21.20;93.80;;;;;;4936641;28;20043;-56
2022/06/12 11:26:22;;;;;;;11.25;2.92;;;21.40;95.50;;;;;;4933594;28;20113;-57
2022/06/12 11:29:13;;;;;;;11.38;3.08;;;21.20;95.00;;;;;;4899768;29;20043;-57
2022/06/12 11:31:43;;;;;;;10.23;2.72;;;21.00;94.90;;;;;;4939774;28;20047;-57
2022/06/12 11:34:22;;;;;;;8.68;2.72;;;21.30;95.80;;;;;;4931636;28;20483;-54
2022/06/12 11:37:03;;;;;;;8.93;3.17;;;20.90;94.80;;;;;;4915833;29;20547;-55
2022/06/12 11:39:47;;;;;;;9.68;3.38;;;20.80;95.40;;;;;;4899981;29;20067;-58
2022/06/12 11:42:22;;;;;;;8.10;2.95;;;21.30;94.80;;;;;;4902709;29;20065;-58
2022/06/12 11:45:07;;;;;;;8.02;2.92;;;21.70;95.30;;;;;;4920825;29;20043;-56
2022/06/12 11:47:57;;;;;;;10.95;3.08;;;21.70;93.90;;;;;;4926530;29;20323;-56
2022/06/12 11:50:49;;;;;;;6.93;2.40;;;21.50;94.10;;;;;;4913810;28;20044;-55
2022/06/12 11:53:21;;;;;;;7.00;2.58;;;21.60;92.60;;;;;;4895122;29;21245;-53
2022/06/12 11:55:57;;;;;;;7.53;2.78;;;21.40;91.70;;;;;;4910973;29;20047;-55
2022/06/12 11:58:46;;;;;;;9.27;3.45;;;21.60;93.00;;;;;;4915055;29;20036;-56
2022/06/12 12:01:33;;;;;;;8.27;2.55;;;22.10;92.70;;;;;;4933314;28;20040;-57
2022/06/12 12:04:11;;;;;;;6.30;2.55;;;22.30;92.40;;;;;;4900879;29;20343;-55
2022/06/12 12:06:56;;;;;;;9.73;2.70;;;22.40;91.60;;;;;;4917304;29;20049;-58
2022/06/12 12:09:59;;;;;;;6.38;2.50;;;21.50;89.20;;;;;;4927885;28;20061;-56
2022/06/12 12:12:32;;;;;;;8.30;2.70;;;20.90;90.70;;;;;;4913349;29;20047;-56
2022/06/12 12:15:00;;;;;;;10.23;3.58;;;20.90;92.10;;;;;;4918180;28;20043;-56
2022/06/12 12:17:37;;;;;;;8.98;2.72;;;21.20;91.40;;;;;;4898124;29;20055;-57
2022/06/12 12:20:11;;;;;;;8.50;2.67;;;21.20;91.10;;;;;;4932658;28;20048;-58
2022/06/12 12:22:38;;;;;;;9.95;3.53;;;21.40;91.20;;;;;;4934741;28;20132;-57
2022/06/12 12:25:31;;;;;;;9.35;2.95;;;21.10;91.30;;;;;;4913374;29;20047;-56
2022/06/12 12:28:03;;;;;;;6.40;2.60;;;21.10;92.10;;;;;;4913648;29;20299;-57
2022/06/12 12:30:38;;;;;;;9.07;3.33;;;21.20;92.50;;;;;;4908744;29;20407;-57
2022/06/12 12:33:09;;;;;;;9.15;3.42;;;21.10;91.80;;;;;;4901743;29;20127;-53
2022/06/12 12:41:18;;;;;;;11.27;2.97;;;21.30;91.90;;;;;;4919364;29;20086;-57
2022/06/12 12:43:56;;;;;;;9.93;2.85;;;21.50;92.60;;;;;;4904372;29;20077;-59
2022/06/12 12:46:26;;;;;;;8.55;2.85;;;21.30;91.50;;;;;;4907518;29;20074;-55
2022/06/12 12:48:55;;;;;;;8.48;2.88;;;21.50;91.80;;;;;;4895668;29;20044;-62
2022/06/12 12:51:28;;;;;;;9.45;2.92;;;21.90;92.50;;;;;;4927135;28;20526;-54
2022/06/12 12:54:13;;;;;;;8.70;3.03;;;22.20;91.30;;;;;;4925727;28;20244;-59
2022/06/12 12:56:50;;;;;;;7.85;2.72;;;21.80;90.90;;;;;;4906283;29;20059;-57
2022/06/12 12:59:17;;;;;;;8.48;2.80;;;22.00;89.70;;;;;;4933828;28;20063;-56
2022/06/12 13:01:47;;;;;;;9.35;3.13;;;21.90;89.60;;;;;;4931237;28;20391;-56
2022/06/12 13:04:14;;;;;;;8.27;2.92;;;22.10;90.70;;;;;;4892808;29;20134;-57
2022/06/12 13:07:04;;;;;;;9.35;2.90;;;22.40;90.50;;;;;;4898631;29;20047;-59
2022/06/12 13:09:34;;;;;;;7.13;2.70;;;22.40;90.20;;;;;;4897147;29;20449;-56
2022/06/12 13:12:31;;;;;;;6.65;2.70;;;22.20;91.10;;;;;;4899434;29;21394;-57
2022/06/12 13:15:15;;;;;;;11.32;3.05;;;22.50;90.60;;;;;;4894478;29;20060;-57
2022/06/12 13:18:09;;;;;;;7.25;2.88;;;22.10;85.20;;;;;;4907724;29;20051;-57
2022/06/12 13:20:52;;;;;;;5.80;2.35;;;22.10;87.60;;;;;;4920510;29;20130;-58
2022/06/12 13:23:18;;;;;;;;;;;22.00;86.60;;;;;;4941380;28;20046;-57
2022/06/12 13:25:50;;;;;;;8.38;3.05;;;22.10;89.80;;;;;;4925159;29;20366;-58
2022/06/12 13:28:23;;;;;;;6.55;2.50;;;21.30;88.00;;;;;;4912623;29;20054;-57
2022/06/12 13:30:50;;;;;;;9.35;2.70;;;21.40;90.10;;;;;;4922876;29;20031;-55
2022/06/12 13:33:23;;;;;;;9.02;3.20;;;21.70;90.50;;;;;;4930919;28;20437;-56
2022/06/12 13:35:51;;;;;;;9.43;3.40;;;21.60;90.40;;;;;;4904300;29;20396;-60